Renick, MO (65278)

1:40 AM CDT on October 22, 2014 (GMT -0500)
East 24 | Change Station
CLOSE
Current Station
Personal Weather Station
Location: Moberly, MO
Elevation: 856 ft
Nearby Weather Stations

Elev 856 ft 39.45 °N, 92.40 °W | Updated 2 seconds ago

Partly Cloudy
Partly Cloudy
48.2 °F
Feels Like 48 °F
N
0.0
Wind Variable Wind from SE
Gusts 0.0 mph

Today
High -- | Low -- °F
--% Chance of Precip.
Yesterday
High -- | Low -- °F
Precip. -- in
7:26 AM 6:20 PM
Waning Crescent, 3% visible
Pressure 30.18 in
Visibility 0.5 miles
Clouds
Windchill 48 °F
Dew Point 40 °F
Humidity 73%
Rainfall 0.00 in
Snow Depth Not available.
UV Not available.
Pollen 2.40 out of 12
Air Quality Not available.
Flu Activity No Activity
METAR KVER 220615Z AUTO 09005KT 1/2SM HZ VV005 10/05 A3018 RMK AO2 T00960053

More Conditions Fewer Conditions

Pressure 30.18 in
Visibility 0.5 miles
Clouds
Windchill 48 °F
Dew Point 40 °F
Humidity 73%
Rainfall 0.00 in
Snow Depth Not available.
UV Not available.
Pollen 2.40 out of 12
Air Quality Not available.
Flu Activity No Activity
METAR KVER 220615Z AUTO 09005KT 1/2SM HZ VV005 10/05 A3018 RMK AO2 T00960053

More Conditions Fewer Conditions

10-Day Weather Forecast

Almanac

Astronomy

Oct. 22, 2014 Rise Set
Actual Time 7:26 AM CDT 6:20 PM CDT
Civil Twilight 6:59 AM CDT 6:47 PM CDT
Nautical Twilight 6:27 AM CDT 7:19 PM CDT
Astronomical Twilight 5:56 AM CDT 7:50 PM CDT
Moon 6:08 AM CDT 5:47 PM CDT
Length of Visible Light 11h 48m
Length of Day
10h 54m
Tomorrow will be 2m 24s shorter.
Waning Crescent, 3% of the Moon is Illuminated
Today
Waning Crescent
Oct 23
New
Oct 30
First Quarter
Nov 6
Full
Nov 14
Last Quarter

Today's Extremes

State Highs State Lows

Community

WunderPhotos

Upload Photos

1,763,884 photos uploaded!

Nearby

Snow Depth

Station Depth Elevation
No new snow has been reported.

Earthquake Activity

City Distance Mag. Time & Date
No recent earthquake activity has been reported nearby.
Minimum magnitude displayed is 2.5.

Coastal Water Temperatures

Place Temperature
No Stations Reporting

Nearby Weather Stations